Time,TemperatureF,DewpointF,PressureIn,WindDirection,WindDirectionDegrees,WindSpeedMPH,WindSpeedGustMPH,Humidity,HourlyPrecipIn,Conditions,Clouds,dailyrainin,SoftwareType,DateUTC
2013-05-21 08:24:00,-999.0,-99.9,29.04,North,-999,-999.0,-999.0,-999,0.00,,,0.00,weatherlink.com 1.10,2013-05-21 12:24:00,
2013-05-21 08:37:00,66.8,65.0,29.05,South,172,2.0,4.0,92,0.00,,,0.00,weatherlink.com 1.10,2013-05-21 12:37:00,
2013-05-21 08:52:00,67.2,65.0,29.06,SSE,154,2.0,6.0,91,0.00,,,0.00,weatherlink.com 1.10,2013-05-21 12:52:00,
2013-05-21 09:07:00,68.3,65.0,29.07,South,184,2.0,6.0,88,0.00,,,0.00,weatherlink.com 1.10,2013-05-21 13:07:00,
2013-05-21 09:22:00,70.5,65.0,29.07,SSW,200,5.0,11.0,82,0.00,,,0.00,weatherlink.com 1.10,2013-05-21 13:22:00,
2013-05-21 09:37:00,71.5,65.0,29.08,SSW,207,3.0,14.0,79,0.00,,,0.00,weatherlink.com 1.10,2013-05-21 13:37:00,
2013-05-21 09:52:00,72.0,65.0,29.08,SW,219,4.0,14.0,78,0.00,,,0.00,weatherlink.com 1.10,2013-05-21 13:52:00,
2013-05-21 10:07:00,72.8,65.0,29.07,SSW,193,6.0,12.0,76,0.00,,,0.00,weatherlink.com 1.10,2013-05-21 14:07:00,
2013-05-21 10:22:00,73.9,65.0,29.08,SSW,212,3.0,13.0,74,0.00,,,0.00,weatherlink.com 1.10,2013-05-21 14:22:00,
2013-05-21 10:38:00,74.4,65.0,29.07,South,176,3.0,10.0,72,0.00,,,0.00,weatherlink.com 1.10,2013-05-21 14:38:00,
2013-05-21 10:53:00,74.1,65.0,29.09,SSE,166,6.0,12.0,74,0.00,,,0.00,weatherlink.com 1.10,2013-05-21 14:53:00,
2013-05-21 11:08:00,73.0,65.0,29.09,SSW,198,6.0,14.0,75,0.00,,,0.00,weatherlink.com 1.10,2013-05-21 15:08:00,
2013-05-21 11:23:00,73.3,65.0,29.08,SSE,162,7.0,9.0,74,0.00,,,0.00,weatherlink.com 1.10,2013-05-21 15:23:00,
2013-05-21 11:38:00,73.3,65.0,29.07,SSW,210,3.0,12.0,74,0.00,,,0.00,weatherlink.com 1.10,2013-05-21 15:38:00,
2013-05-21 11:53:00,74.4,65.0,29.07,SW,236,5.0,12.0,72,0.00,,,0.00,weatherlink.com 1.10,2013-05-21 15:53:00,
2013-05-21 12:08:00,74.1,65.0,29.07,SW,221,5.0,12.0,73,0.00,,,0.00,weatherlink.com 1.10,2013-05-21 16:08:00,
2013-05-21 12:23:00,74.1,64.0,29.07,SSW,204,6.0,10.0,71,0.00,,,0.00,weatherlink.com 1.10,2013-05-21 16:23:00,
2013-05-21 12:38:00,74.0,64.0,29.06,South,177,2.0,14.0,71,0.00,,,0.00,weatherlink.com 1.10,2013-05-21 16:38:00,
2013-05-21 12:53:00,73.5,64.0,29.05,SSW,207,3.0,7.0,73,0.00,,,0.00,weatherlink.com 1.10,2013-05-21 16:53:00,
2013-05-21 13:08:00,73.3,65.0,29.06,SW,218,6.0,10.0,74,0.00,,,0.00,weatherlink.com 1.10,2013-05-21 17:08:00,
2013-05-21 13:23:00,73.3,64.0,29.06,SSW,208,6.0,11.0,73,0.00,,,0.00,weatherlink.com 1.10,2013-05-21 17:23:00,
2013-05-21 13:38:00,75.5,65.0,29.06,SSE,154,6.0,15.0,70,0.00,,,0.00,weatherlink.com 1.10,2013-05-21 17:38:00,
2013-05-21 13:53:00,76.1,65.0,29.05,South,181,5.0,17.0,69,0.00,,,0.00,weatherlink.com 1.10,2013-05-21 17:53:00,
2013-05-21 14:08:00,75.7,66.0,29.05,SW,214,11.0,11.0,71,0.00,,,0.00,weatherlink.com 1.10,2013-05-21 18:08:00,
2013-05-21 14:23:00,75.5,65.0,29.05,WSW,252,10.0,11.0,70,0.00,,,0.00,weatherlink.com 1.10,2013-05-21 18:23:00,
2013-05-21 14:38:00,76.4,66.0,29.04,SSE,165,4.0,9.0,70,0.00,,,0.00,weatherlink.com 1.10,2013-05-21 18:38:00,
2013-05-21 14:53:00,76.5,66.0,29.05,SSW,208,5.0,10.0,70,0.00,,,0.00,weatherlink.com 1.10,2013-05-21 18:53:00,
2013-05-21 15:08:00,76.3,66.0,29.05,SW,228,7.0,10.0,71,0.00,,,0.00,weatherlink.com 1.10,2013-05-21 19:08:00,
2013-05-21 15:23:00,75.5,66.0,29.05,SSE,153,3.0,11.0,72,0.00,,,0.00,weatherlink.com 1.10,2013-05-21 19:23:00,
2013-05-21 15:38:00,77.0,66.0,29.05,SE,143,7.0,14.0,69,0.00,,,0.00,weatherlink.com 1.10,2013-05-21 19:38:00,
2013-05-21 15:53:00,79.1,66.0,29.04,SW,231,5.0,13.0,65,0.00,,,0.00,weatherlink.com 1.10,2013-05-21 19:53:00,
2013-05-21 16:08:00,78.8,66.0,29.04,SSW,194,3.0,12.0,65,0.00,,,0.00,weatherlink.com 1.10,2013-05-21 20:08:00,
2013-05-21 16:23:00,80.5,66.0,29.04,South,169,6.0,11.0,62,0.00,,,0.00,weatherlink.com 1.10,2013-05-21 20:23:00,
2013-05-21 16:38:00,78.6,66.0,29.03,WSW,240,8.0,8.0,65,0.00,,,0.00,weatherlink.com 1.10,2013-05-21 20:38:00,
2013-05-21 16:53:00,78.0,66.0,29.02,WSW,250,4.0,9.0,66,0.00,,,0.00,weatherlink.com 1.10,2013-05-21 20:53:00,
2013-05-21 17:08:00,77.3,66.0,29.02,SW,225,4.0,12.0,68,0.00,,,0.00,weatherlink.com 1.10,2013-05-21 21:08:00,
2013-05-21 17:24:00,77.4,63.0,29.03,SSW,211,4.0,11.0,61,0.00,,,0.00,weatherlink.com 1.10,2013-05-21 21:24:00,
2013-05-21 17:38:00,76.6,63.0,29.03,SSW,201,4.0,12.0,62,0.00,,,0.00,weatherlink.com 1.10,2013-05-21 21:38:00,
2013-05-21 17:53:00,77.4,62.0,29.03,SW,219,7.0,10.0,59,0.00,,,0.00,weatherlink.com 1.10,2013-05-21 21:53:00,
2013-05-21 18:08:00,78.5,61.0,29.03,SSW,212,6.0,7.0,56,0.00,,,0.00,weatherlink.com 1.10,2013-05-21 22:08:00,
2013-05-21 18:23:00,78.9,62.0,29.02,SW,232,3.0,9.0,57,0.00,,,0.00,weatherlink.com 1.10,2013-05-21 22:23:00,
2013-05-21 18:38:00,79.2,63.0,29.02,South,180,2.0,9.0,58,0.00,,,0.00,weatherlink.com 1.10,2013-05-21 22:38:00,
2013-05-21 18:53:00,79.3,64.0,29.02,SSE,156,2.0,6.0,59,0.00,,,0.00,weatherlink.com 1.10,2013-05-21 22:53:00,
2013-05-21 19:08:00,78.6,64.0,29.01,WSW,240,4.0,5.0,61,0.00,,,0.00,weatherlink.com 1.10,2013-05-21 23:08:00,
2013-05-21 19:23:00,78.7,65.0,29.01,SSW,200,3.0,6.0,62,0.00,,,0.00,weatherlink.com 1.10,2013-05-21 23:23:00,
2013-05-21 19:38:00,77.1,65.0,29.02,SSW,196,2.0,6.0,66,0.00,,,0.00,weatherlink.com 1.10,2013-05-21 23:38:00,
2013-05-21 19:53:00,77.1,65.0,29.02,SSW,203,4.0,5.0,67,0.00,,,0.00,weatherlink.com 1.10,2013-05-21 23:53:00,
2013-05-21 20:08:00,77.3,65.0,29.02,WSW,249,5.0,6.0,67,0.00,,,0.00,weatherlink.com 1.10,2013-05-22 00:08:00,
2013-05-21 20:23:00,76.5,66.0,29.02,SW,221,1.0,6.0,69,0.00,,,0.00,weatherlink.com 1.10,2013-05-22 00:23:00,
2013-05-21 20:38:00,75.5,65.0,29.02,South,177,0.0,3.0,71,0.00,,,0.00,weatherlink.com 1.10,2013-05-22 00:38:00,
2013-05-21 20:53:00,74.1,65.0,29.02,South,176,0.0,1.0,74,0.00,,,0.00,weatherlink.com 1.10,2013-05-22 00:53:00,
2013-05-21 21:08:00,72.2,65.0,29.02,South,176,0.0,1.0,79,0.00,,,0.00,weatherlink.com 1.10,2013-05-22 01:08:00,
2013-05-21 21:23:00,70.4,65.0,29.02,South,176,0.0,0.0,83,0.00,,,0.00,weatherlink.com 1.10,2013-05-22 01:23:00,
2013-05-21 21:38:00,69.2,65.0,29.02,South,176,0.0,0.0,86,0.00,,,0.00,weatherlink.com 1.10,2013-05-22 01:38:00,
2013-05-21 21:53:00,68.5,65.0,29.02,South,176,0.0,0.0,88,0.00,,,0.00,weatherlink.com 1.10,2013-05-22 01:53:00,
2013-05-21 22:08:00,67.6,65.0,29.03,South,176,0.0,0.0,90,0.00,,,0.00,weatherlink.com 1.10,2013-05-22 02:08:00,
2013-05-21 22:23:00,67.0,64.0,29.03,South,176,0.0,0.0,91,0.00,,,0.00,weatherlink.com 1.10,2013-05-22 02:23:00,
2013-05-21 22:38:00,66.2,64.0,29.04,South,176,0.0,0.0,92,0.00,,,0.00,weatherlink.com 1.10,2013-05-22 02:38:00,
2013-05-21 22:53:00,65.9,64.0,29.04,South,176,0.0,0.0,94,0.00,,,0.00,weatherlink.com 1.10,2013-05-22 02:53:00,
2013-05-21 23:08:00,65.4,64.0,29.04,South,176,0.0,0.0,94,0.00,,,0.00,weatherlink.com 1.10,2013-05-22 03:08:00,
2013-05-21 23:23:00,65.2,64.0,29.03,South,176,0.0,1.0,95,0.00,,,0.00,weatherlink.com 1.10,2013-05-22 03:23:00,
2013-05-21 23:38:00,64.7,63.0,29.03,South,176,0.0,0.0,95,0.00,,,0.00,weatherlink.com 1.10,2013-05-22 03:38:00,
2013-05-21 23:53:00,64.6,64.0,29.03,South,176,0.0,0.0,96,0.00,,,0.00,weatherlink.com 1.10,2013-05-22 03:53:00,